Time;durP1;ratioP1;P1;durP2;ratioP2;P2;SDS_P1;SDS_P2;PMS_P1;PMS_P2;Temp;Humidity;BMP_temperature;BMP_pressure;BME280_temperature;BME280_humidity;BME280_pressure;Samples;Min_cycle;Max_cycle;Signal;HPM_P1;HPM_P2
2021/12/15 00:01:25;;;;;;;32.17;14.00;;;;;;;-0.44;64.38;100663.22;4926197;29;20067;-75
2021/12/15 00:03:51;;;;;;;33.13;12.38;;;;;;;-0.31;65.35;100672.38;4926950;29;20564;-77
2021/12/15 00:06:19;;;;;;;30.52;13.15;;;;;;;-0.31;64.39;100677.47;4925378;29;20043;-75
2021/12/15 00:08:51;;;;;;;28.55;12.55;;;;;;;-0.26;64.97;100672.59;4924734;29;20729;-74
2021/12/15 00:11:18;;;;;;;35.38;14.00;;;;;;;-0.55;64.33;100626.00;4925578;29;20035;-77
2021/12/15 00:13:45;;;;;;;30.65;13.13;;;;;;;-0.41;64.58;100667.59;4926207;29;20422;-77
2021/12/15 00:16:15;;;;;;;36.80;14.00;;;;;;;-0.48;64.21;100666.41;4927196;29;20048;-76
2021/12/15 00:18:44;;;;;;;30.70;12.93;;;;;;;-0.51;64.33;100658.59;4925504;29;20581;-79
2021/12/15 00:21:12;;;;;;;33.47;13.65;;;;;;;-0.40;64.38;100665.13;4924147;29;20055;-76
2021/12/15 00:23:39;;;;;;;34.03;13.02;;;;;;;-0.51;64.27;100640.69;4923994;29;20043;-75
2021/12/15 00:26:05;;;;;;;28.20;12.57;;;;;;;-0.26;65.04;100665.81;4927363;29;20517;-75
2021/12/15 00:28:32;;;;;;;35.08;13.82;;;;;;;-0.16;64.96;100664.56;4925553;29;20044;-76
2021/12/15 00:30:58;;;;;;;31.67;13.60;;;;;;;-0.32;64.55;100622.88;4927053;29;20106;-74
2021/12/15 00:33:24;;;;;;;30.27;14.20;;;;;;;-0.11;64.90;100645.16;4922395;29;20040;-77
2021/12/15 00:35:50;;;;;;;31.85;14.65;;;;;;;-0.20;63.95;100639.63;4925579;29;20537;-75
2021/12/15 00:38:16;;;;;;;28.80;13.50;;;;;;;-0.19;64.18;100636.28;4926812;29;20075;-76
2021/12/15 00:40:42;;;;;;;32.85;14.75;;;;;;;-0.10;64.33;100638.38;4926757;29;20056;-76
2021/12/15 00:43:08;;;;;;;30.48;14.80;;;;;;;-0.15;64.01;100648.41;4891550;29;20115;-75
2021/12/15 00:45:35;;;;;;;29.50;13.32;;;;;;;-0.16;64.10;100655.19;4923780;29;20043;-75
2021/12/15 00:48:01;;;;;;;26.58;12.13;;;;;;;-0.14;63.96;100660.41;4925422;29;20044;-75
2021/12/15 00:50:32;;;;;;;31.05;13.25;;;;;;;-0.30;63.34;100658.78;4927205;29;20095;-74
2021/12/15 00:52:58;;;;;;;32.10;14.20;;;;;;;-0.52;64.24;100646.59;4928783;29;20050;-77
2021/12/15 00:55:26;;;;;;;33.10;14.13;;;;;;;-0.51;63.96;100648.34;4924799;29;20110;-76
2021/12/15 00:57:53;;;;;;;32.17;14.35;;;;;;;-0.44;64.65;100652.13;4938845;29;20051;-74
2021/12/15 01:00:25;;;;;;;33.00;14.13;;;;;;;-0.43;64.75;100648.72;4945358;28;20138;-77
2021/12/15 01:02:52;;;;;;;32.08;13.32;;;;;;;-0.44;64.34;100650.41;4949391;29;20024;-76
2021/12/15 01:05:22;;;;;;;31.73;14.07;;;;;;;-0.53;64.86;100638.06;4949321;29;20035;-76
2021/12/15 01:07:49;;;;;;;33.08;13.52;;;;;;;-0.55;64.35;100626.88;4927356;29;20074;-75
2021/12/15 01:10:23;;;;;;;33.78;14.27;;;;;;;-0.49;64.47;100627.19;4928696;29;20043;-76
2021/12/15 01:14:32;;;;;;;28.33;13.82;;;;;;;-0.35;64.21;100620.19;4928829;29;20062;-76
2021/12/15 01:21:25;;;;;;;30.23;12.50;;;;;;;-0.37;64.02;100600.44;4876212;29;20532;-76
2021/12/15 01:23:51;;;;;;;31.15;12.63;;;;;;;-0.41;64.56;100584.06;4904428;29;20048;-76
2021/12/15 01:26:17;;;;;;;34.50;14.15;;;;;;;-0.15;63.58;100617.72;4928480;29;20036;-77
2021/12/15 01:28:43;;;;;;;33.15;13.13;;;;;;;-0.13;63.97;100631.47;4928208;29;20062;-76
2021/12/15 01:31:10;;;;;;;30.55;13.27;;;;;;;-0.22;63.97;100613.09;4912315;29;20066;-77
2021/12/15 01:33:38;;;;;;;31.05;12.25;;;;;;;-0.37;63.77;100583.44;4924671;29;20568;-75
2021/12/15 01:36:06;;;;;;;31.15;13.07;;;;;;;-0.13;64.19;100611.00;4928824;29;20417;-78
2021/12/15 01:38:34;;;;;;;29.52;13.38;;;;;;;-0.41;63.66;100555.94;4929336;29;20044;-76
2021/12/15 01:41:00;;;;;;;33.47;13.50;;;;;;;-0.25;63.97;100582.25;4930583;29;20091;-74
2021/12/15 01:43:48;;;;;;;33.83;14.65;;;;;;;-0.27;63.75;100584.75;4932386;29;20055;-76
2021/12/15 01:49:09;;;;;;;33.00;14.02;;;;;;;-0.10;63.77;100605.13;4927235;29;20036;-75
2021/12/15 01:51:35;;;;;;;35.47;14.93;;;;;;;-0.08;63.66;100598.41;4930419;29;20093;-77
2021/12/15 01:54:02;;;;;;;36.30;13.05;;;;;;;-0.06;64.53;100607.03;4926545;29;20047;-76
2021/12/15 01:56:28;;;;;;;32.45;14.18;;;;;;;-0.09;63.97;100594.09;4927684;29;20039;-75
2021/12/15 01:58:54;;;;;;;33.90;13.80;;;;;;;-0.05;64.91;100601.97;4929769;29;20047;-75
2021/12/15 02:01:21;;;;;;;30.92;13.68;;;;;;;-0.05;64.23;100599.41;4913438;29;20536;-75
2021/12/15 02:03:47;;;;;;;30.58;13.45;;;;;;;0.00;64.31;100591.97;4928668;29;20039;-76
2021/12/15 02:06:13;;;;;;;32.53;13.23;;;;;;;-0.04;64.19;100579.84;4933696;29;20044;-75
2021/12/15 02:08:42;;;;;;;31.60;14.18;;;;;;;-0.32;64.67;100540.16;4934480;29;20039;-74
2021/12/15 02:11:08;;;;;;;33.20;14.32;;;;;;;-0.05;64.38;100594.28;4913935;29;20122;-77
2021/12/15 02:13:34;;;;;;;33.50;14.07;;;;;;;0.04;64.93;100606.63;4926613;29;20048;-77
2021/12/15 02:16:05;;;;;;;35.70;14.18;;;;;;;-0.08;64.36;100591.59;4929962;29;20141;-75
2021/12/15 02:18:35;;;;;;;35.40;14.35;;;;;;;-0.18;64.07;100572.38;4930082;29;20051;-77
2021/12/15 02:21:06;;;;;;;35.33;14.25;;;;;;;0.01;64.89;100606.50;4914170;29;20051;-77
2021/12/15 02:23:40;;;;;;;34.03;13.70;;;;;;;0.02;64.51;100610.81;4926130;29;20104;-74
2021/12/15 02:26:11;;;;;;;37.08;14.05;;;;;;;0.01;64.74;100609.03;4923902;29;20313;-77
2021/12/15 02:28:38;;;;;;;35.83;13.98;;;;;;;-0.03;64.40;100613.16;4925244;29;20653;-76
2021/12/15 02:38:48;;;;;;;32.58;13.75;;;;;;;-0.26;64.70;100566.03;4928878;29;20052;-75
2021/12/15 02:41:23;;;;;;;33.08;14.75;;;;;;;-0.05;64.75;100603.66;4928182;29;20048;-73
2021/12/15 02:43:59;;;;;;;33.85;14.45;;;;;;;-0.07;64.67;100588.22;4923762;29;20601;-77
2021/12/15 02:46:26;;;;;;;38.95;14.95;;;;;;;-0.12;64.15;100578.59;4925588;29;20047;-75
2021/12/15 02:48:53;;;;;;;36.92;15.13;;;;;;;-0.03;65.22;100591.81;4923282;29;20071;-76
2021/12/15 02:51:20;;;;;;;37.25;13.82;;;;;;;-0.03;64.15;100592.69;4924149;29;20082;-76
2021/12/15 02:53:49;;;;;;;33.88;14.65;;;;;;;0.06;64.67;100599.91;4924937;29;20047;-76
2021/12/15 02:56:15;;;;;;;37.45;14.95;;;;;;;0.03;64.18;100593.78;4928122;29;20441;-75
2021/12/15 02:58:50;;;;;;;38.50;14.85;;;;;;;0.04;64.74;100595.53;4927098;29;20071;-77
2021/12/15 03:01:26;;;;;;;36.88;14.00;;;;;;;-0.01;64.83;100601.31;4913361;29;20122;-76
2021/12/15 03:06:58;;;;;;;33.38;14.65;;;;;;;-0.19;64.55;100564.63;4924504;29;20058;-78
2021/12/15 03:17:38;;;;;;;37.40;14.25;;;;;;;-0.07;64.62;100575.44;4942228;29;20075;-77
2021/12/15 03:20:06;;;;;;;36.60;15.43;;;;;;;-0.12;64.89;100563.22;4936444;29;20078;-77
2021/12/15 03:22:32;;;;;;;38.67;14.68;;;;;;;-0.11;64.43;100563.28;4928017;29;20199;-75
2021/12/15 03:24:58;;;;;;;31.60;14.40;;;;;;;-0.10;64.26;100575.28;4925271;29;20577;-75
2021/12/15 03:33:15;;;;;;;33.15;14.30;;;;;;;-0.16;64.60;100580.13;4926419;29;20131;-75
2021/12/15 03:36:01;;;;;;;38.50;14.68;;;;;;;-0.25;65.18;100559.22;4929206;29;20393;-74
2021/12/15 03:38:30;;;;;;;28.95;13.18;;;;;;;-0.14;64.60;100568.28;4928489;29;20042;-75
2021/12/15 03:40:56;;;;;;;35.65;14.75;;;;;;;-0.29;64.79;100539.41;4927487;29;20047;-74
2021/12/15 03:43:23;;;;;;;42.10;15.38;;;;;;;-0.21;64.68;100561.13;4929546;29;20051;-76
2021/12/15 03:45:53;;;;;;;38.53;14.52;;;;;;;-0.19;64.80;100578.28;4930753;29;20066;-76
2021/12/15 03:48:23;;;;;;;39.38;14.73;;;;;;;-0.19;64.67;100579.97;4926193;29;20091;-74
2021/12/15 03:50:50;;;;;;;37.67;15.38;;;;;;;-0.23;64.88;100572.97;4928667;29;20043;-74
2021/12/15 03:53:17;;;;;;;39.70;14.95;;;;;;;-0.24;64.38;100553.31;4941509;29;20054;-75
2021/12/15 03:55:44;;;;;;;35.88;15.10;;;;;;;-0.16;65.45;100573.31;4944823;29;20039;-77
2021/12/15 03:58:13;;;;;;;38.75;14.80;;;;;;;-0.01;65.09;100579.97;4945123;29;20080;-75
2021/12/15 04:00:43;;;;;;;39.28;15.27;;;;;;;0.03;65.21;100576.72;4945826;29;20089;-75
2021/12/15 04:03:21;;;;;;;37.58;14.98;;;;;;;-0.09;64.52;100571.06;4944760;29;20054;-76
2021/12/15 04:05:47;;;;;;;38.70;15.95;;;;;;;-0.17;65.17;100563.03;4961177;29;20044;-75
2021/12/15 04:08:13;;;;;;;41.58;15.73;;;;;;;-0.11;65.06;100578.66;4945074;29;20051;-74
2021/12/15 04:10:39;;;;;;;36.25;15.80;;;;;;;-0.09;65.51;100577.03;4947468;29;20023;-74
2021/12/15 04:13:05;;;;;;;41.90;15.75;;;;;;;-0.18;65.11;100562.13;4930910;29;20046;-75
2021/12/15 04:15:42;;;;;;;42.25;16.08;;;;;;;-0.04;65.26;100580.69;4941225;29;20066;-76
2021/12/15 04:18:09;;;;;;;39.72;15.52;;;;;;;0.02;65.33;100566.44;4949948;29;20035;-74
2021/12/15 04:20:37;;;;;;;42.50;16.00;;;;;;;-0.03;65.64;100546.63;4940984;29;20489;-74
2021/12/15 04:23:06;;;;;;;38.05;15.88;;;;;;;0.06;64.75;100560.66;4935592;29;20044;-75
2021/12/15 04:25:35;;;;;;;44.22;16.42;;;;;;;-0.14;64.85;100522.25;4938010;29;20048;-74
2021/12/15 04:28:17;;;;;;;45.85;16.25;;;;;;;-0.04;65.87;100537.19;4928306;29;20048;-74
2021/12/15 04:30:49;;;;;;;41.80;15.82;;;;;;;0.20;65.01;100557.03;4930382;29;20453;-76
2021/12/15 04:33:23;;;;;;;42.95;15.32;;;;;;;0.22;64.71;100552.00;4926480;29;20435;-75
2021/12/15 04:35:53;;;;;;;43.72;16.45;;;;;;;0.20;65.61;100548.50;4895143;29;21113;-77
2021/12/15 04:38:22;;;;;;;43.92;16.00;;;;;;;0.04;64.92;100532.41;4907998;29;20051;-77
2021/12/15 04:40:48;;;;;;;35.35;14.93;;;;;;;0.19;65.42;100552.72;4923778;29;20050;-75
2021/12/15 04:43:14;;;;;;;42.13;16.98;;;;;;;0.17;65.46;100538.97;4927230;29;20043;-76
2021/12/15 04:45:40;;;;;;;44.05;16.08;;;;;;;-0.02;65.63;100499.75;4925466;29;20044;-75
2021/12/15 04:48:09;;;;;;;41.53;15.07;;;;;;;0.31;65.72;100546.41;4926131;29;20106;-74
2021/12/15 04:50:36;;;;;;;37.60;15.63;;;;;;;0.25;65.72;100537.63;4906712;29;20039;-75
2021/12/15 04:53:05;;;;;;;38.85;15.43;;;;;;;0.33;65.73;100550.78;4929143;29;20082;-75
2021/12/15 04:55:33;;;;;;;39.20;15.52;;;;;;;0.29;65.71;100526.75;4925984;29;20039;-78
2021/12/15 04:58:00;;;;;;;44.03;16.13;;;;;;;0.24;65.63;100520.53;4924765;29;20044;-76
2021/12/15 05:00:32;;;;;;;44.15;16.98;;;;;;;0.39;65.63;100553.63;4927083;29;20462;-78
2021/12/15 05:02:58;;;;;;;48.50;16.95;;;;;;;0.35;64.98;100545.72;4927226;29;20038;-76
2021/12/15 05:05:26;;;;;;;40.88;15.73;;;;;;;0.26;65.63;100518.91;4926504;29;20169;-74
2021/12/15 05:07:52;;;;;;;49.08;16.58;;;;;;;0.40;65.67;100537.44;4927128;29;20091;-77
2021/12/15 05:10:21;;;;;;;44.72;17.85;;;;;;;0.37;65.14;100531.28;4926469;29;20481;-76
2021/12/15 05:12:47;;;;;;;41.40;15.85;;;;;;;0.36;65.22;100537.22;4923495;29;20059;-76
2021/12/15 05:15:16;;;;;;;41.60;17.17;;;;;;;0.35;65.72;100541.50;4926105;29;20040;-75
2021/12/15 05:17:42;;;;;;;40.00;16.25;;;;;;;0.43;65.86;100542.72;4926230;29;20044;-75
2021/12/15 05:20:10;;;;;;;38.58;15.85;;;;;;;0.43;65.07;100555.53;4924950;29;20118;-76
2021/12/15 05:22:37;;;;;;;45.55;16.90;;;;;;;0.35;64.67;100558.50;4938574;29;20130;-78
2021/12/15 05:25:05;;;;;;;36.70;14.52;;;;;;;0.23;64.88;100557.19;4925701;29;20174;-74
2021/12/15 05:27:31;;;;;;;38.35;15.30;;;;;;;-0.08;64.79;100509.69;4924548;29;20154;-77
2021/12/15 05:29:57;;;;;;;37.22;14.35;;;;;;;0.10;64.76;100554.88;4924799;29;20134;-77
2021/12/15 05:32:23;;;;;;;33.60;13.73;;;;;;;-0.03;64.80;100531.25;4923958;29;20083;-77
2021/12/15 05:34:55;;;;;;;32.75;12.50;;;;;;;0.05;65.00;100549.53;4927613;29;20079;-75
2021/12/15 05:37:23;;;;;;;35.17;13.55;;;;;;;-0.08;64.48;100540.41;4941466;29;20058;-75
2021/12/15 05:39:51;;;;;;;40.83;14.00;;;;;;;-0.04;65.65;100549.13;4909803;29;20089;-75
2021/12/15 05:42:19;;;;;;;35.08;13.90;;;;;;;-0.05;65.52;100532.88;4923845;29;20032;-75
2021/12/15 05:44:46;;;;;;;38.22;14.30;;;;;;;0.13;65.60;100550.75;4934488;29;20123;-78
2021/12/15 05:47:13;;;;;;;37.53;14.43;;;;;;;0.13;65.61;100537.97;4933145;29;20044;-76
2021/12/15 05:49:39;;;;;;;38.15;14.07;;;;;;;0.11;65.27;100544.69;4935080;29;20043;-77
2021/12/15 05:52:06;;;;;;;39.35;15.27;;;;;;;0.16;66.03;100552.56;4932283;29;20092;-78
2021/12/15 05:54:32;;;;;;;29.02;12.52;;;;;;;0.16;65.67;100549.16;4932217;29;20103;-76
2021/12/15 05:56:58;;;;;;;32.90;13.27;;;;;;;0.21;65.90;100551.09;4927257;29;20044;-76
2021/12/15 05:59:28;;;;;;;30.90;12.38;;;;;;;0.20;65.45;100526.31;4926482;29;20043;-76
2021/12/15 06:01:56;;;;;;;33.30;11.20;;;;;;;0.18;66.12;100520.25;4918431;29;20047;-75
2021/12/15 06:04:32;;;;;;;34.08;14.32;;;;;;;0.39;65.91;100540.81;4916387;29;20039;-75
2021/12/15 06:06:58;;;;;;;30.02;12.30;;;;;;;0.48;66.44;100540.34;4927626;29;20050;-76
2021/12/15 06:09:27;;;;;;;36.10;12.90;;;;;;;0.34;65.79;100515.78;4930285;29;20050;-75
2021/12/15 06:11:56;;;;;;;29.92;11.88;;;;;;;0.42;65.83;100532.38;4914906;29;20048;-77
2021/12/15 06:14:24;;;;;;;31.02;12.73;;;;;;;0.39;66.05;100527.13;4927605;29;20035;-74
2021/12/15 06:17:03;;;;;;;33.30;12.35;;;;;;;0.43;65.78;100531.56;4928092;29;20575;-76
2021/12/15 06:19:29;;;;;;;31.45;11.70;;;;;;;0.42;66.02;100532.38;4934101;29;20047;-76
2021/12/15 06:21:56;;;;;;;34.55;12.75;;;;;;;0.27;65.94;100507.88;4932184;29;20039;-75
2021/12/15 06:24:22;;;;;;;31.33;12.65;;;;;;;0.47;65.98;100542.81;4899884;29;20059;-76
2021/12/15 06:26:49;;;;;;;31.05;11.82;;;;;;;0.45;65.41;100541.06;4930897;29;20050;-75
2021/12/15 06:29:15;;;;;;;36.33;13.05;;;;;;;0.43;65.65;100534.13;4927030;29;20036;-76
2021/12/15 06:31:42;;;;;;;35.38;12.52;;;;;;;0.47;66.21;100543.72;4932159;29;20136;-74
2021/12/15 06:34:08;;;;;;;34.35;12.05;;;;;;;0.53;65.73;100545.66;4936724;29;20044;-75
2021/12/15 06:36:34;;;;;;;36.30;12.93;;;;;;;0.40;65.96;100526.31;4940377;29;20043;-75
2021/12/15 06:39:04;;;;;;;36.38;12.70;;;;;;;0.47;65.49;100546.28;4937337;29;20036;-74
2021/12/15 06:41:31;;;;;;;36.50;12.50;;;;;;;0.38;65.67;100528.81;4937577;29;20133;-75
2021/12/15 06:43:58;;;;;;;34.90;11.77;;;;;;;0.47;66.10;100545.38;4922580;29;20143;-74
2021/12/15 06:46:58;;;;;;;28.52;12.10;;;;;;;0.39;65.52;100528.00;4946717;28;20031;-74
2021/12/15 06:58:10;;;;;;;36.45;13.13;;;;;;;0.73;66.13;100537.16;4927540;29;20568;-75
2021/12/15 07:00:20;;;;;;;40.88;16.65;;;;;;;0.69;66.19;100532.69;4935888;29;20099;-75
2021/12/15 07:02:46;;;;;;;31.17;12.48;;;;;;;0.69;66.51;100525.00;4930569;29;20050;-77
2021/12/15 07:05:15;;;;;;;31.58;13.02;;;;;;;0.74;66.36;100538.03;4933332;29;20510;-76
2021/12/15 07:07:50;;;;;;;34.95;13.05;;;;;;;0.71;66.47;100535.34;4936356;29;20044;-78
2021/12/15 07:10:22;;;;;;;33.10;12.65;;;;;;;0.77;66.29;100553.56;4935825;29;20075;-73
2021/12/15 07:13:10;;;;;;;34.58;12.38;;;;;;;0.80;65.98;100545.97;4935877;29;20048;-75
2021/12/15 07:15:37;;;;;;;33.78;12.57;;;;;;;0.75;66.15;100537.22;4931957;29;20055;-74
2021/12/15 07:18:08;;;;;;;42.35;13.15;;;;;;;0.79;65.91;100541.66;4913267;29;20124;-74
2021/12/15 07:20:43;;;;;;;31.20;11.90;;;;;;;0.84;66.44;100540.16;4914190;29;20047;-76
2021/12/15 07:23:19;;;;;;;33.78;12.65;;;;;;;0.86;66.55;100537.69;4916386;29;20047;-76
2021/12/15 07:25:53;;;;;;;29.42;11.80;;;;;;;0.90;66.83;100539.53;4944661;29;20047;-75
2021/12/15 07:28:21;;;;;;;33.40;11.98;;;;;;;0.85;65.72;100549.59;4925898;29;20047;-77
2021/12/15 07:30:51;;;;;;;31.00;12.52;;;;;;;0.89;66.47;100548.03;4930264;29;20078;-77
2021/12/15 07:33:17;;;;;;;29.98;11.32;;;;;;;0.67;66.11;100495.03;4929457;29;20040;-75
2021/12/15 07:35:43;;;;;;;33.45;12.73;;;;;;;0.81;65.81;100534.91;4929231;29;20102;-76
2021/12/15 07:38:10;;;;;;;34.20;12.25;;;;;;;0.75;66.37;100524.41;4934386;29;20091;-74
2021/12/15 07:40:40;;;;;;;33.80;13.20;;;;;;;0.86;66.21;100553.06;4932914;29;20052;-76
2021/12/15 07:43:13;;;;;;;32.38;13.15;;;;;;;0.83;66.09;100548.66;4933186;29;20111;-75
2021/12/15 07:45:51;;;;;;;29.23;12.05;;;;;;;0.86;65.93;100546.25;4931923;29;20075;-74
2021/12/15 07:48:29;;;;;;;29.30;12.07;;;;;;;0.76;66.17;100536.44;4903890;29;20044;-77
2021/12/15 07:50:58;;;;;;;32.55;10.93;;;;;;;0.50;66.40;100502.88;4935495;29;20058;-78
2021/12/15 07:53:24;;;;;;;27.83;10.05;;;;;;;0.66;65.90;100539.38;4932218;29;20099;-74
2021/12/15 07:55:52;;;;;;;31.27;11.20;;;;;;;0.69;66.02;100542.94;4910023;29;20046;-75
2021/12/15 07:58:22;;;;;;;27.48;10.48;;;;;;;0.53;66.50;100540.53;4944409;29;20040;-76
2021/12/15 08:00:49;;;;;;;28.65;10.90;;;;;;;0.68;66.13;100543.75;4936025;29;20036;-76
2021/12/15 08:03:35;;;;;;;27.95;11.02;;;;;;;0.65;66.45;100535.97;4934930;29;20517;-78
2021/12/15 08:06:02;;;;;;;25.35;10.90;;;;;;;0.68;65.94;100540.34;4921063;29;20126;-78
2021/12/15 08:08:28;;;;;;;27.80;11.68;;;;;;;0.70;66.58;100543.84;4930390;29;20130;-74
2021/12/15 08:10:57;;;;;;;27.48;10.70;;;;;;;0.69;67.07;100545.50;4905628;29;20564;-77
2021/12/15 08:13:27;;;;;;;30.52;11.10;;;;;;;0.64;65.98;100526.53;4919082;29;20052;-75
2021/12/15 08:15:58;;;;;;;31.90;11.50;;;;;;;0.78;66.57;100542.47;4917617;29;20079;-77
2021/12/15 08:18:25;;;;;;;30.08;12.27;;;;;;;0.83;66.09;100548.66;4929291;29;20040;-77
2021/12/15 08:20:55;;;;;;;33.63;12.57;;;;;;;0.81;65.69;100540.03;4897992;29;20610;-76
2021/12/15 08:23:21;;;;;;;32.10;12.60;;;;;;;0.83;65.83;100548.66;4933231;29;20366;-78
2021/12/15 08:25:54;;;;;;;37.42;12.48;;;;;;;0.75;65.84;100545.78;4932124;29;20061;-76
2021/12/15 08:28:23;;;;;;;35.83;14.50;;;;;;;0.69;65.92;100534.41;4939817;29;20054;-76
2021/12/15 08:30:53;;;;;;;34.47;13.85;;;;;;;0.81;65.94;100554.53;4915459;29;20079;-77
2021/12/15 08:33:22;;;;;;;28.05;12.88;;;;;;;0.76;65.76;100533.88;4932898;29;20529;-78
2021/12/15 08:36:06;;;;;;;33.10;12.07;;;;;;;0.86;66.60;100535.97;4934846;29;20116;-77
2021/12/15 08:38:34;;;;;;;33.15;12.85;;;;;;;1.00;65.54;100554.50;4929806;29;20071;-75
2021/12/15 08:41:16;;;;;;;31.35;12.00;;;;;;;1.04;65.52;100548.72;4928546;29;20099;-75
2021/12/15 08:43:42;;;;;;;32.42;12.85;;;;;;;1.00;65.73;100533.13;4935007;29;20461;-77
2021/12/15 08:46:18;;;;;;;34.58;11.75;;;;;;;1.01;66.15;100515.25;4931656;29;20102;-75
2021/12/15 08:48:45;;;;;;;31.45;12.35;;;;;;;1.10;66.10;100521.59;4900877;29;20043;-77
2021/12/15 08:51:15;;;;;;;29.35;12.80;;;;;;;1.21;65.42;100535.69;4924374;29;20110;-75
2021/12/15 08:53:43;;;;;;;30.02;11.90;;;;;;;1.25;65.66;100527.31;4931752;29;20040;-76
2021/12/15 08:56:09;;;;;;;32.95;12.90;;;;;;;1.26;65.91;100535.88;4931700;29;20039;-77
2021/12/15 08:58:36;;;;;;;34.00;13.13;;;;;;;1.23;65.45;100526.38;4927761;29;20071;-77
2021/12/15 09:01:04;;;;;;;39.00;14.38;;;;;;;1.39;65.95;100533.03;4926630;29;20510;-76
2021/12/15 09:03:30;;;;;;;35.88;13.20;;;;;;;1.45;65.43;100534.94;4911164;29;20379;-76
2021/12/15 09:05:59;;;;;;;39.03;14.93;;;;;;;1.51;65.05;100535.19;4938184;29;20054;-75
2021/12/15 09:08:25;;;;;;;32.60;12.90;;;;;;;1.34;65.42;100501.16;4933405;29;20071;-76
2021/12/15 09:10:53;;;;;;;42.90;17.85;;;;;;;1.32;65.09;100502.81;4929371;29;20043;-75
2021/12/15 09:13:20;;;;;;;36.08;13.20;;;;;;;1.47;64.96;100528.19;4913201;29;20047;-76
2021/12/15 09:15:46;;;;;;;34.88;13.25;;;;;;;1.46;65.07;100524.72;4925781;29;20584;-76
2021/12/15 09:18:14;;;;;;;30.77;12.35;;;;;;;1.43;65.10;100518.63;4924879;29;20048;-76
2021/12/15 09:20:42;;;;;;;34.28;11.88;;;;;;;1.34;64.95;100496.03;4928814;29;20044;-79
2021/12/15 09:23:13;;;;;;;36.00;13.57;;;;;;;1.35;65.09;100490.97;4929164;29;20043;-77
2021/12/15 09:25:39;;;;;;;33.10;12.55;;;;;;;1.49;64.89;100501.78;4928593;29;20691;-77
2021/12/15 09:28:06;;;;;;;31.33;12.10;;;;;;;1.58;65.09;100497.81;4929550;29;20134;-74
2021/12/15 09:30:34;;;;;;;32.95;13.18;;;;;;;1.42;64.29;100481.84;4928347;29;20066;-77
2021/12/15 09:33:00;;;;;;;37.90;13.32;;;;;;;1.52;64.79;100508.72;4932061;29;20149;-77
2021/12/15 09:35:30;;;;;;;38.97;15.05;;;;;;;1.61;64.61;100496.25;4932140;29;20039;-77
2021/12/15 09:37:59;;;;;;;32.17;11.95;;;;;;;1.71;64.71;100494.03;4928462;29;20059;-76
2021/12/15 09:40:25;;;;;;;27.85;11.75;;;;;;;1.89;64.41;100507.56;4927717;29;20044;-77
2021/12/15 09:42:51;;;;;;;33.35;11.45;;;;;;;1.97;64.47;100510.41;4917710;29;20039;-75
2021/12/15 09:45:33;;;;;;;34.38;12.35;;;;;;;2.00;64.26;100500.28;4930694;29;20078;-77
2021/12/15 10:05:01;;;;;;;23.88;11.48;;;;;;;1.91;63.57;100441.75;4870013;29;20117;-75
2021/12/15 10:19:14;;;;;;;29.38;11.48;;;;;;;2.10;63.51;100448.41;4889961;29;20056;-78
2021/12/15 10:21:36;;;;;;;29.83;11.45;;;;;;;2.13;63.50;100439.97;4942010;29;20106;-77
2021/12/15 10:24:04;;;;;;;29.10;11.55;;;;;;;2.01;63.45;100429.25;4935912;29;20067;-77
2021/12/15 10:26:31;;;;;;;30.40;11.07;;;;;;;2.09;63.19;100439.00;4938847;29;20055;-77
2021/12/15 10:28:57;;;;;;;29.77;11.90;;;;;;;1.96;63.23;100436.78;4925531;29;20063;-75
2021/12/15 10:31:27;;;;;;;29.98;11.82;;;;;;;1.97;63.30;100442.81;4929605;29;20055;-77
2021/12/15 10:34:03;;;;;;;30.58;12.05;;;;;;;1.84;62.78;100426.09;4932815;29;20040;-75
2021/12/15 10:36:33;;;;;;;26.52;10.43;;;;;;;1.84;63.20;100426.09;4936226;29;20048;-77
2021/12/15 10:39:03;;;;;;;26.50;10.65;;;;;;;1.97;63.47;100438.53;4922409;29;20043;-79
2021/12/15 10:41:28;;;;;;;30.42;11.43;;;;;;;1.98;63.28;100440.28;4943627;29;20134;-79
2021/12/15 10:43:57;;;;;;;29.15;11.77;;;;;;;1.98;63.17;100445.41;4952016;29;20604;-79
2021/12/15 10:46:54;;;;;;;26.08;10.63;;;;;;;1.80;62.68;100448.19;4941502;29;20051;-76
2021/12/15 10:49:42;;;;;;;25.63;10.32;;;;;;;1.73;63.41;100428.25;4936544;29;20051;-75
2021/12/15 10:52:12;;;;;;;25.73;9.85;;;;;;;1.80;63.44;100425.06;4949414;29;20044;-75
2021/12/15 10:54:46;;;;;;;30.60;10.93;;;;;;;1.86;62.93;100432.16;4935403;29;20040;-77
2021/12/15 10:57:15;;;;;;;26.30;10.27;;;;;;;1.73;62.78;100426.56;4933816;29;20057;-76
2021/12/15 10:59:47;;;;;;;26.98;10.75;;;;;;;1.70;63.10;100423.88;4934895;29;20079;-77
2021/12/15 11:02:25;;;;;;;25.15;11.18;;;;;;;1.58;63.61;100408.88;4932266;29;20036;-78
2021/12/15 11:05:14;;;;;;;22.27;9.45;;;;;;;1.57;62.71;100431.94;4947351;29;20106;-76
2021/12/15 11:07:48;;;;;;;25.70;9.93;;;;;;;1.53;63.79;100433.53;4934116;29;20083;-76
2021/12/15 11:10:21;;;;;;;24.52;10.38;;;;;;;1.49;63.60;100429.09;4934505;29;20052;-77
2021/12/15 11:13:12;;;;;;;26.60;10.35;;;;;;;1.47;63.76;100430.72;4934092;29;20046;-73
2021/12/15 11:15:41;;;;;;;23.20;9.43;;;;;;;1.38;63.79;100410.72;4936108;29;20043;-73
2021/12/15 11:18:21;;;;;;;34.38;14.27;;;;;;;1.49;63.78;100434.22;4934695;29;20111;-77
2021/12/15 11:20:53;;;;;;;27.73;10.90;;;;;;;1.49;64.13;100429.94;4930815;29;20047;-79
2021/12/15 11:23:24;;;;;;;23.27;10.43;;;;;;;1.20;63.74;100393.81;4938096;29;20067;-75
2021/12/15 11:25:53;;;;;;;28.02;10.77;;;;;;;1.29;64.33;100402.66;4946480;29;20048;-75
2021/12/15 11:28:28;;;;;;;24.17;10.35;;;;;;;1.53;64.33;100435.19;4939483;29;20185;-78
2021/12/15 11:31:11;;;;;;;23.48;9.82;;;;;;;1.40;64.14;100416.78;4926812;29;20159;-75
2021/12/15 11:33:41;;;;;;;25.00;10.40;;;;;;;1.53;64.19;100436.09;4931094;29;20124;-74
2021/12/15 11:36:30;;;;;;;25.63;10.75;;;;;;;1.53;64.50;100427.50;4934071;29;20063;-75
2021/12/15 11:39:16;;;;;;;26.02;10.90;;;;;;;1.62;64.40;100420.16;4934389;29;20099;-79
2021/12/15 11:41:46;;;;;;;21.33;9.32;;;;;;;1.62;64.17;100412.47;4914781;29;20466;-79
2021/12/15 11:44:15;;;;;;;25.27;9.90;;;;;;;1.66;64.51;100422.00;4931409;29;20136;-77
2021/12/15 11:46:44;;;;;;;22.45;10.13;;;;;;;1.69;64.25;100426.38;4929742;29;20523;-76
2021/12/15 11:49:23;;;;;;;21.65;9.80;;;;;;;1.66;64.78;100427.13;4917679;29;20048;-76
2021/12/15 11:51:51;;;;;;;22.75;9.73;;;;;;;1.57;64.17;100421.69;4943409;29;20099;-78
2021/12/15 11:54:31;;;;;;;22.38;10.07;;;;;;;1.49;63.82;100437.63;4943247;29;20138;-77
2021/12/15 11:57:19;;;;;;;26.98;9.82;;;;;;;1.38;65.01;100441.50;4933580;29;20051;-78
2021/12/15 11:59:50;;;;;;;24.98;10.25;;;;;;;1.14;64.92;100415.75;4930014;29;20587;-77
2021/12/15 12:02:28;;;;;;;26.20;10.02;;;;;;;1.26;64.63;100434.19;4926993;29;20425;-75
2021/12/15 12:05:02;;;;;;;24.50;10.13;;;;;;;1.28;64.53;100440.28;4916234;29;20182;-75
2021/12/15 12:07:33;;;;;;;26.05;10.75;;;;;;;1.32;64.80;100443.81;4928344;29;20051;-78
2021/12/15 12:10:03;;;;;;;24.63;10.00;;;;;;;1.27;65.21;100435.94;4932496;29;20036;-77
2021/12/15 12:12:37;;;;;;;24.70;10.93;;;;;;;1.17;65.27;100427.03;4932678;29;20039;-77
2021/12/15 12:15:07;;;;;;;26.00;10.32;;;;;;;1.15;65.45;100432.88;4932365;29;20134;-75
2021/12/15 12:17:37;;;;;;;22.05;10.35;;;;;;;1.15;64.87;100438.91;4925008;29;20058;-78
2021/12/15 12:20:08;;;;;;;24.65;9.85;;;;;;;1.15;65.67;100441.47;4932400;29;20127;-75
2021/12/15 12:22:35;;;;;;;;;;;;;;;1.04;64.81;100450.41;4915231;29;20050;-76
2021/12/15 12:25:08;;;;;;;28.60;11.57;;;;;;;0.86;65.45;100422.38;4927836;29;20009;-77
2021/12/15 12:27:35;;;;;;;22.10;10.40;;;;;;;0.81;65.26;100409.34;4926357;29;20082;-78
2021/12/15 12:30:06;;;;;;;27.58;11.63;;;;;;;1.05;65.57;100445.34;4927859;29;20040;-75
2021/12/15 12:32:32;;;;;;;26.98;10.38;;;;;;;1.08;65.68;100454.84;4930312;29;20139;-74
2021/12/15 12:34:59;;;;;;;27.55;10.68;;;;;;;1.08;65.19;100446.31;4943113;29;20071;-75
2021/12/15 12:37:25;;;;;;;24.77;10.80;;;;;;;1.08;65.33;100446.31;4906200;29;20074;-77